createdAt,value
2018-06-18T00:04:34.887Z,101469.22
2018-06-18T00:09:37.991Z,101465.41
2018-06-18T00:14:41.112Z,101464.91
2018-06-18T00:19:44.294Z,101466.69
2018-06-18T00:24:47.503Z,101458.19
2018-06-18T00:29:50.632Z,101466.71
2018-06-18T00:34:53.771Z,101466.22
2018-06-18T00:39:56.865Z,101464.63
2018-06-18T00:45:00.901Z,101459.84
2018-06-18T00:50:05.192Z,101468.59
2018-06-18T00:55:08.352Z,101473.03
2018-06-18T01:00:11.424Z,101475.30
2018-06-18T01:05:14.786Z,101479.98
2018-06-18T01:10:18.114Z,101486.94
2018-06-18T01:15:21.190Z,101488.05
2018-06-18T01:20:24.340Z,101478.49
2018-06-18T01:25:27.470Z,101483.06
2018-06-18T01:30:30.985Z,101490.98
2018-06-18T01:35:34.024Z,101486.94
2018-06-18T01:40:37.223Z,101488.56
2018-06-18T01:45:40.377Z,101497.63
2018-06-18T01:50:43.797Z,101499.64
2018-06-18T01:55:46.962Z,101499.81
2018-06-18T02:00:50.181Z,101495.81
2018-06-18T02:05:53.509Z,101501.70
2018-06-18T02:10:56.708Z,101508.17
2018-06-18T02:15:59.850Z,101496.14
2018-06-18T02:21:03.206Z,101494.22
2018-06-18T02:26:06.437Z,101494.20
2018-06-18T02:31:09.536Z,101507.47
2018-06-18T02:36:13.557Z,101502.08
2018-06-18T02:41:16.606Z,101512.62
2018-06-18T02:46:19.889Z,101512.42
2018-06-18T02:51:23.136Z,101526.23
2018-06-18T02:56:48.172Z,101520.58
2018-06-18T03:01:51.237Z,101522.23
2018-06-18T03:06:54.369Z,101527.02
2018-06-18T03:11:59.474Z,101514.63
2018-06-18T03:17:02.608Z,101513.02
2018-06-18T03:22:05.748Z,101508.25
2018-06-18T03:27:08.867Z,101510.08
2018-06-18T03:32:14.382Z,101513.02
2018-06-18T03:37:18.937Z,101503.50
2018-06-18T03:42:21.953Z,101500.47
2018-06-18T03:47:27.141Z,101493.91
2018-06-18T03:52:30.610Z,101494.45
2018-06-18T03:57:33.756Z,101497.95
2018-06-18T04:02:46.114Z,101492.23
2018-06-18T04:07:49.873Z,101495.88
2018-06-18T04:12:53.121Z,101491.98
2018-06-18T04:18:00.654Z,101505.22
2018-06-18T04:23:03.921Z,101505.49
2018-06-18T04:28:07.494Z,101509.70
2018-06-18T04:33:11.358Z,101516.19
2018-06-18T04:38:14.945Z,101521.08
2018-06-18T04:43:18.249Z,101537.84
2018-06-18T04:48:21.408Z,101540.08
2018-06-18T04:53:24.481Z,101548.08
2018-06-18T04:58:27.604Z,101551.48
2018-06-18T05:03:30.730Z,101558.41
2018-06-18T05:09:00.034Z,101569.65
2018-06-18T05:14:03.188Z,101567.50
2018-06-18T05:19:06.543Z,101566.23
2018-06-18T05:24:09.628Z,101591.05
2018-06-18T05:29:12.759Z,101588.90
2018-06-18T05:34:18.139Z,101591.30
2018-06-18T05:39:21.260Z,101599.11
2018-06-18T05:44:24.566Z,101609.29
2018-06-18T05:49:27.841Z,101607.16
2018-06-18T05:54:30.981Z,101609.55
2018-06-18T05:59:34.135Z,101597.75
2018-06-18T06:04:37.271Z,101598.98
2018-06-18T06:09:40.506Z,101593.97
2018-06-18T06:14:43.643Z,101587.58
2018-06-18T06:19:46.839Z,101602.31
2018-06-18T06:24:50.027Z,101605.63
2018-06-18T06:29:53.117Z,101599.05
2018-06-18T06:35:00.567Z,101602.18
2018-06-18T06:40:03.982Z,101611.74
2018-06-18T06:45:07.084Z,101620.70
2018-06-18T06:50:10.174Z,101616.36
2018-06-18T06:55:13.334Z,101611.38
2018-06-18T07:00:16.438Z,101609.35
2018-06-18T07:05:24.854Z,101604.59
2018-06-18T07:10:28.820Z,101614.53
2018-06-18T07:15:36.833Z,101623.02
2018-06-18T07:20:44.375Z,101626.41
2018-06-18T07:25:47.824Z,101626.02
2018-06-18T07:30:50.953Z,101646.47
2018-06-18T07:35:54.032Z,101664.58
2018-06-18T07:40:57.383Z,101663.16
2018-06-18T07:46:00.706Z,101663.01
2018-06-18T07:51:03.848Z,101657.33
2018-06-18T07:56:07.044Z,101655.45
2018-06-18T08:01:10.149Z,101664.74
2018-06-18T08:06:13.283Z,101661.81
2018-06-18T08:11:16.387Z,101665.98
2018-06-18T08:16:19.495Z,101658.68
2018-06-18T08:21:22.602Z,101665.23
2018-06-18T08:26:25.695Z,101663.63
2018-06-18T08:31:28.924Z,101659.51
2018-06-18T08:36:32.107Z,101658.08
2018-06-18T08:41:35.237Z,101655.23
2018-06-18T08:46:38.363Z,101658.38
2018-06-18T08:51:41.465Z,101662.59
2018-06-18T08:56:45.242Z,101661.28
2018-06-18T09:01:48.443Z,101669.70
2018-06-18T09:06:51.560Z,101669.02
2018-06-18T09:11:54.683Z,101661.25
2018-06-18T09:17:05.540Z,101640.47
2018-06-18T09:22:08.648Z,101647.71
2018-06-18T09:27:11.747Z,101643.86
2018-06-18T09:32:14.916Z,101649.94
2018-06-18T09:37:17.909Z,101655.92
2018-06-18T09:42:21.002Z,101653.47
2018-06-18T09:47:24.073Z,101664.55
2018-06-18T09:52:27.346Z,101663.89
2018-06-18T09:57:30.455Z,101658.28
2018-06-18T10:02:33.631Z,101653.87
2018-06-18T10:07:36.761Z,101645.38
2018-06-18T10:12:39.876Z,101637.34
2018-06-18T10:17:43.057Z,101639.22
2018-06-18T10:22:46.190Z,101622.63
2018-06-18T10:27:49.305Z,101627.97
2018-06-18T10:32:52.375Z,101635.41
2018-06-18T10:37:55.466Z,101638.11
2018-06-18T10:42:58.614Z,101644.92
2018-06-18T10:48:01.742Z,101643.89
2018-06-18T10:53:04.921Z,101635.51
2018-06-18T10:58:08.069Z,101646.83
2018-06-18T11:03:11.149Z,101649.16
2018-06-18T11:08:14.499Z,101649.04
2018-06-18T11:13:17.568Z,101635.20
2018-06-18T11:18:20.656Z,101637.71
2018-06-18T11:23:23.893Z,101634.93
2018-06-18T11:28:27.052Z,101631.50
2018-06-18T11:33:30.082Z,101619.55
2018-06-18T11:38:33.618Z,101621.91
2018-06-18T11:43:36.935Z,101616.34
2018-06-18T11:48:40.084Z,101610.48
2018-06-18T11:53:43.262Z,101608.75
2018-06-18T11:58:46.324Z,101618.91
2018-06-18T12:03:49.482Z,101625.36
2018-06-18T12:08:52.573Z,101620.88
2018-06-18T12:13:57.780Z,101626.63
2018-06-18T12:19:01.315Z,101622.81
2018-06-18T12:24:04.723Z,101623.08
2018-06-18T12:29:07.939Z,101614.78
2018-06-18T12:34:11.225Z,101610.72
2018-06-18T12:39:14.390Z,101598.19
2018-06-18T12:44:17.553Z,101610.32
2018-06-18T12:49:21.826Z,101604.02
2018-06-18T12:54:24.956Z,101598.52
2018-06-18T12:59:28.653Z,101594.31
2018-06-18T13:04:33.982Z,101587.86
2018-06-18T13:09:37.298Z,101580.50
2018-06-18T13:14:40.491Z,101583.16
2018-06-18T13:19:43.623Z,101580.36
2018-06-18T13:24:46.694Z,101576.98
2018-06-18T13:29:49.753Z,101581.40
2018-06-18T13:34:52.878Z,101566.70
2018-06-18T13:39:56.357Z,101572.75
2018-06-18T13:45:00.402Z,101566.14
2018-06-18T13:50:04.443Z,101564.20
2018-06-18T13:55:07.831Z,101575.70
2018-06-18T14:00:10.953Z,101563.83
2018-06-18T14:05:14.391Z,101564.22
2018-06-18T14:10:18.321Z,101551.27
2018-06-18T14:15:21.490Z,101547.94
2018-06-18T14:20:24.594Z,101546.61
2018-06-18T14:25:27.688Z,101536.95
2018-06-18T14:30:30.950Z,101530.21
2018-06-18T14:35:34.200Z,101530.36
2018-06-18T14:40:37.468Z,101527.45
2018-06-18T14:45:40.634Z,101523.38
2018-06-18T14:50:43.819Z,101521.16
2018-06-18T14:55:52.306Z,101511.45
2018-06-18T15:00:55.453Z,101507.39
2018-06-18T15:05:59.008Z,101521.41
2018-06-18T15:11:02.274Z,101526.88
2018-06-18T15:16:05.768Z,101529.84
2018-06-18T15:21:09.217Z,101525.39
2018-06-18T15:26:12.352Z,101524.34
2018-06-18T15:31:15.576Z,101530.78
2018-06-18T15:36:18.726Z,101538.08
2018-06-18T15:41:21.994Z,101542.72
2018-06-18T15:46:25.149Z,101535.97
2018-06-18T15:51:28.359Z,101530.74
2018-06-18T15:56:31.751Z,101538.06
2018-06-18T16:01:35.165Z,101531.91
2018-06-18T16:06:38.580Z,101528.90
2018-06-18T16:11:41.941Z,101525.50
2018-06-18T16:16:46.154Z,101520.98
2018-06-18T16:21:49.397Z,101518.05
2018-06-18T16:26:52.583Z,101515.37
2018-06-18T16:31:55.853Z,101522.89
2018-06-18T16:36:59.169Z,101526.83
2018-06-18T16:42:02.530Z,101518.16
2018-06-18T16:47:05.691Z,101523.59
2018-06-18T16:52:08.915Z,101514.06
2018-06-18T16:57:12.069Z,101508.66
2018-06-18T17:02:15.345Z,101504.34
2018-06-18T17:07:18.855Z,101496.34
2018-06-18T17:12:21.968Z,101490.45
2018-06-18T17:17:25.217Z,101500.70
2018-06-18T17:22:28.410Z,101498.03
2018-06-18T17:27:31.763Z,101496.62
2018-06-18T17:32:34.903Z,101494.92
2018-06-18T17:37:38.358Z,101494.80
2018-06-18T17:42:41.649Z,101491.14
2018-06-18T17:47:44.763Z,101498.66
2018-06-18T17:52:47.945Z,101500.40
2018-06-18T17:57:51.137Z,101503.08
2018-06-18T18:02:54.312Z,101493.61
2018-06-18T18:07:57.532Z,101490.87
2018-06-18T18:13:00.790Z,101496.63
2018-06-18T18:18:04.343Z,101502.11
2018-06-18T18:23:07.625Z,101497.25
2018-06-18T18:28:10.794Z,101496.59
2018-06-18T18:33:14.188Z,101503.36
2018-06-18T18:38:18.654Z,101502.66
2018-06-18T18:43:21.944Z,101498.82
2018-06-18T18:48:25.054Z,101493.02
2018-06-18T18:53:28.315Z,101506.27
2018-06-18T18:59:34.560Z,101509.57
2018-06-18T19:04:42.505Z,101516.06
2018-06-18T19:09:55.556Z,101520.31
2018-06-18T19:15:00.155Z,101520.80
2018-06-18T19:20:13.938Z,101520.81
2018-06-18T19:25:19.061Z,101530.69
2018-06-18T19:30:22.376Z,101536.33
2018-06-18T19:35:25.641Z,101544.89
2018-06-18T19:40:28.894Z,101551.03
2018-06-18T19:45:34.551Z,101555.89
2018-06-18T19:50:38.029Z,101570.22
2018-06-18T19:55:41.331Z,101570.42
2018-06-18T20:00:47.208Z,101566.88
2018-06-18T20:05:52.965Z,101569.36
2018-06-18T20:10:56.104Z,101574.98
2018-06-18T20:15:59.670Z,101572.86
2018-06-18T20:21:02.839Z,101575.52
2018-06-18T20:26:08.419Z,101583.16
2018-06-18T20:31:11.583Z,101582.91
2018-06-18T20:36:16.109Z,101584.98
2018-06-18T20:41:19.636Z,101588.63
2018-06-18T20:46:22.801Z,101591.72
2018-06-18T20:51:26.386Z,101588.63
2018-06-18T20:56:29.503Z,101595.72
2018-06-18T21:01:32.780Z,101593.01
2018-06-18T21:06:36.085Z,101588.13
2018-06-18T21:11:39.778Z,101593.91
2018-06-18T21:16:45.167Z,101591.98
2018-06-18T21:21:48.449Z,101587.62
2018-06-18T21:26:51.672Z,101590.84
2018-06-18T21:31:54.796Z,101582.50
2018-06-18T21:36:58.461Z,101590.69
2018-06-18T21:42:02.042Z,101586.13
2018-06-18T21:47:05.428Z,101595.25
2018-06-18T21:52:08.722Z,101596.36
2018-06-18T21:57:11.943Z,101600.90
2018-06-18T22:02:15.087Z,101596.47
2018-06-18T22:07:18.273Z,101590.85
2018-06-18T22:12:21.450Z,101576.20
2018-06-18T22:17:24.610Z,101578.98
2018-06-18T22:22:27.803Z,101576.91
2018-06-18T22:27:31.017Z,101573.25
2018-06-18T22:32:34.181Z,101574.28
2018-06-18T22:37:37.335Z,101571.11
2018-06-18T22:42:40.442Z,101571.07
2018-06-18T22:47:43.783Z,101565.98
2018-06-18T22:52:46.908Z,101565.06
2018-06-18T22:57:50.206Z,101564.38
2018-06-18T23:02:53.308Z,101573.59
2018-06-18T23:07:56.468Z,101574.42
2018-06-18T23:12:59.891Z,101582.23
2018-06-18T23:18:02.982Z,101587.91
2018-06-18T23:23:06.095Z,101580.80
2018-06-18T23:28:09.598Z,101582.63
2018-06-18T23:33:12.831Z,101585.03
2018-06-18T23:38:16.030Z,101582.74
2018-06-18T23:43:19.197Z,101587.41
2018-06-18T23:48:22.309Z,101590.80
2018-06-18T23:53:25.413Z,101590.93
2018-06-18T23:58:28.857Z,101587.56
